sensor_id;sensor_type;location;lat;lon;timestamp;temperature;humidity
16871;DHT22;8552;48.120;-1.456;2023-08-06T00:01:59;14.10;99.90
16871;DHT22;8552;48.120;-1.456;2023-08-06T00:04:25;14.10;99.90
16871;DHT22;8552;48.120;-1.456;2023-08-06T00:06:51;14.10;99.90
16871;DHT22;8552;48.120;-1.456;2023-08-06T00:09:17;14.10;99.90
16871;DHT22;8552;48.120;-1.456;2023-08-06T00:11:43;14.10;99.90
16871;DHT22;8552;48.120;-1.456;2023-08-06T00:14:09;14.10;99.90
16871;DHT22;8552;48.120;-1.456;2023-08-06T00:16:35;14.10;99.90
16871;DHT22;8552;48.120;-1.456;2023-08-06T00:19:11;14.10;99.90
16871;DHT22;8552;48.120;-1.456;2023-08-06T00:21:37;14.00;99.90
16871;DHT22;8552;48.120;-1.456;2023-08-06T00:24:03;14.00;99.90
16871;DHT22;8552;48.120;-1.456;2023-08-06T00:26:29;14.00;99.90
16871;DHT22;8552;48.120;-1.456;2023-08-06T00:28:55;14.00;99.90
16871;DHT22;8552;48.120;-1.456;2023-08-06T00:31:21;14.00;99.90
16871;DHT22;8552;48.120;-1.456;2023-08-06T00:33:46;14.00;99.90
16871;DHT22;8552;48.120;-1.456;2023-08-06T00:36:12;14.00;99.90
16871;DHT22;8552;48.120;-1.456;2023-08-06T00:38:38;14.00;99.90
16871;DHT22;8552;48.120;-1.456;2023-08-06T00:41:04;14.00;99.90
16871;DHT22;8552;48.120;-1.456;2023-08-06T00:43:30;14.00;99.90
16871;DHT22;8552;48.120;-1.456;2023-08-06T00:45:56;14.00;99.90
16871;DHT22;8552;48.120;-1.456;2023-08-06T00:48:21;14.00;99.90
16871;DHT22;8552;48.120;-1.456;2023-08-06T00:50:47;14.00;99.90
16871;DHT22;8552;48.120;-1.456;2023-08-06T00:53:14;14.00;99.90
16871;DHT22;8552;48.120;-1.456;2023-08-06T00:55:40;14.00;99.90
16871;DHT22;8552;48.120;-1.456;2023-08-06T00:58:05;13.90;99.90
16871;DHT22;8552;48.120;-1.456;2023-08-06T01:00:34;13.90;99.90
16871;DHT22;8552;48.120;-1.456;2023-08-06T01:03:00;13.90;99.90
16871;DHT22;8552;48.120;-1.456;2023-08-06T01:05:26;13.90;99.90
16871;DHT22;8552;48.120;-1.456;2023-08-06T01:08:16;13.90;99.90
16871;DHT22;8552;48.120;-1.456;2023-08-06T01:16:15;13.80;99.90
16871;DHT22;8552;48.120;-1.456;2023-08-06T01:18:41;13.90;99.90
16871;DHT22;8552;48.120;-1.456;2023-08-06T01:21:14;13.80;99.90
16871;DHT22;8552;48.120;-1.456;2023-08-06T01:23:40;13.80;99.90
16871;DHT22;8552;48.120;-1.456;2023-08-06T01:29:03;13.80;99.90
16871;DHT22;8552;48.120;-1.456;2023-08-06T01:31:32;13.80;99.90
16871;DHT22;8552;48.120;-1.456;2023-08-06T01:34:01;13.80;99.90
16871;DHT22;8552;48.120;-1.456;2023-08-06T01:36:28;13.80;99.90
16871;DHT22;8552;48.120;-1.456;2023-08-06T01:38:54;13.80;99.90
16871;DHT22;8552;48.120;-1.456;2023-08-06T01:41:20;13.80;99.90
16871;DHT22;8552;48.120;-1.456;2023-08-06T01:43:45;13.80;99.90
16871;DHT22;8552;48.120;-1.456;2023-08-06T01:46:11;13.80;99.90
16871;DHT22;8552;48.120;-1.456;2023-08-06T01:48:37;13.80;99.90
16871;DHT22;8552;48.120;-1.456;2023-08-06T01:51:06;13.70;99.90
16871;DHT22;8552;48.120;-1.456;2023-08-06T01:53:32;13.70;99.90
16871;DHT22;8552;48.120;-1.456;2023-08-06T01:55:58;13.70;99.90
16871;DHT22;8552;48.120;-1.456;2023-08-06T01:58:24;13.70;99.90
16871;DHT22;8552;48.120;-1.456;2023-08-06T02:00:49;13.80;99.90
16871;DHT22;8552;48.120;-1.456;2023-08-06T02:03:15;13.70;99.90
16871;DHT22;8552;48.120;-1.456;2023-08-06T02:05:41;13.80;99.90
16871;DHT22;8552;48.120;-1.456;2023-08-06T02:08:07;13.80;99.90
16871;DHT22;8552;48.120;-1.456;2023-08-06T02:10:33;13.80;99.90
16871;DHT22;8552;48.120;-1.456;2023-08-06T02:12:59;13.70;99.90
16871;DHT22;8552;48.120;-1.456;2023-08-06T02:15:25;13.70;99.90
16871;DHT22;8552;48.120;-1.456;2023-08-06T02:17:50;13.60;99.90
16871;DHT22;8552;48.120;-1.456;2023-08-06T02:20:16;13.60;99.90
16871;DHT22;8552;48.120;-1.456;2023-08-06T02:22:47;13.60;99.90
16871;DHT22;8552;48.120;-1.456;2023-08-06T02:25:13;13.60;99.90
16871;DHT22;8552;48.120;-1.456;2023-08-06T02:27:46;13.60;99.90
16871;DHT22;8552;48.120;-1.456;2023-08-06T02:30:14;13.50;99.90
16871;DHT22;8552;48.120;-1.456;2023-08-06T02:32:40;13.50;99.90
16871;DHT22;8552;48.120;-1.456;2023-08-06T02:35:06;13.50;99.90
16871;DHT22;8552;48.120;-1.456;2023-08-06T02:37:35;13.50;99.90
16871;DHT22;8552;48.120;-1.456;2023-08-06T02:40:01;13.40;99.90
16871;DHT22;8552;48.120;-1.456;2023-08-06T02:42:27;13.40;99.90
16871;DHT22;8552;48.120;-1.456;2023-08-06T02:44:56;13.40;99.90
16871;DHT22;8552;48.120;-1.456;2023-08-06T02:47:26;13.30;99.90
16871;DHT22;8552;48.120;-1.456;2023-08-06T02:49:52;13.30;99.90
16871;DHT22;8552;48.120;-1.456;2023-08-06T02:52:18;13.30;99.90
16871;DHT22;8552;48.120;-1.456;2023-08-06T02:54:51;13.30;99.90
16871;DHT22;8552;48.120;-1.456;2023-08-06T02:57:17;13.20;99.90
16871;DHT22;8552;48.120;-1.456;2023-08-06T02:59:45;13.20;99.90
16871;DHT22;8552;48.120;-1.456;2023-08-06T03:02:11;13.20;99.90
16871;DHT22;8552;48.120;-1.456;2023-08-06T03:04:39;13.20;99.90
16871;DHT22;8552;48.120;-1.456;2023-08-06T03:07:04;13.20;99.90
16871;DHT22;8552;48.120;-1.456;2023-08-06T03:09:39;13.20;99.90
16871;DHT22;8552;48.120;-1.456;2023-08-06T03:12:12;13.10;99.90
16871;DHT22;8552;48.120;-1.456;2023-08-06T03:14:38;13.10;99.90
16871;DHT22;8552;48.120;-1.456;2023-08-06T03:17:07;13.10;99.90
16871;DHT22;8552;48.120;-1.456;2023-08-06T03:19:33;13.10;99.90
16871;DHT22;8552;48.120;-1.456;2023-08-06T03:21:59;13.10;99.90
16871;DHT22;8552;48.120;-1.456;2023-08-06T03:24:25;13.10;99.90
16871;DHT22;8552;48.120;-1.456;2023-08-06T03:26:55;13.10;99.90
16871;DHT22;8552;48.120;-1.456;2023-08-06T03:29:21;13.00;99.90
16871;DHT22;8552;48.120;-1.456;2023-08-06T03:31:47;13.00;99.90
16871;DHT22;8552;48.120;-1.456;2023-08-06T03:34:13;13.00;99.90
16871;DHT22;8552;48.120;-1.456;2023-08-06T03:36:39;12.90;99.90
16871;DHT22;8552;48.120;-1.456;2023-08-06T03:39:05;12.90;99.90
16871;DHT22;8552;48.120;-1.456;2023-08-06T03:41:38;12.90;99.90
16871;DHT22;8552;48.120;-1.456;2023-08-06T03:44:07;12.90;99.90
16871;DHT22;8552;48.120;-1.456;2023-08-06T03:46:32;12.80;99.90
16871;DHT22;8552;48.120;-1.456;2023-08-06T03:49:00;12.80;99.90
16871;DHT22;8552;48.120;-1.456;2023-08-06T03:51:26;12.80;99.90
16871;DHT22;8552;48.120;-1.456;2023-08-06T03:53:52;12.80;99.90
16871;DHT22;8552;48.120;-1.456;2023-08-06T03:56:17;12.70;99.90
16871;DHT22;8552;48.120;-1.456;2023-08-06T03:58:43;12.70;99.90
16871;DHT22;8552;48.120;-1.456;2023-08-06T04:01:09;12.70;99.90
16871;DHT22;8552;48.120;-1.456;2023-08-06T04:03:35;12.70;99.90
16871;DHT22;8552;48.120;-1.456;2023-08-06T04:06:03;12.70;99.90
16871;DHT22;8552;48.120;-1.456;2023-08-06T04:08:29;12.60;99.90
16871;DHT22;8552;48.120;-1.456;2023-08-06T04:10:58;12.60;99.90
16871;DHT22;8552;48.120;-1.456;2023-08-06T04:13:27;12.60;99.90
16871;DHT22;8552;48.120;-1.456;2023-08-06T04:15:52;12.60;99.90
16871;DHT22;8552;48.120;-1.456;2023-08-06T04:18:26;12.60;99.90
16871;DHT22;8552;48.120;-1.456;2023-08-06T04:20:52;12.50;99.90
16871;DHT22;8552;48.120;-1.456;2023-08-06T04:23:21;12.50;99.90
16871;DHT22;8552;48.120;-1.456;2023-08-06T04:25:52;12.50;99.90
16871;DHT22;8552;48.120;-1.456;2023-08-06T04:28:18;12.50;99.90
16871;DHT22;8552;48.120;-1.456;2023-08-06T04:30:46;12.50;99.90
16871;DHT22;8552;48.120;-1.456;2023-08-06T04:33:12;12.50;99.90
16871;DHT22;8552;48.120;-1.456;2023-08-06T04:35:38;12.50;99.90
16871;DHT22;8552;48.120;-1.456;2023-08-06T04:38:04;12.50;99.90
16871;DHT22;8552;48.120;-1.456;2023-08-06T04:40:30;12.50;99.90
16871;DHT22;8552;48.120;-1.456;2023-08-06T04:42:55;12.50;99.90
16871;DHT22;8552;48.120;-1.456;2023-08-06T04:45:21;12.50;99.90
16871;DHT22;8552;48.120;-1.456;2023-08-06T04:47:54;12.50;99.90
16871;DHT22;8552;48.120;-1.456;2023-08-06T04:50:20;12.50;99.90
16871;DHT22;8552;48.120;-1.456;2023-08-06T04:52:46;12.50;99.90
16871;DHT22;8552;48.120;-1.456;2023-08-06T04:55:12;12.40;99.90
16871;DHT22;8552;48.120;-1.456;2023-08-06T04:57:37;12.40;99.90
16871;DHT22;8552;48.120;-1.456;2023-08-06T05:00:04;12.40;99.90
16871;DHT22;8552;48.120;-1.456;2023-08-06T05:02:32;12.40;99.90
16871;DHT22;8552;48.120;-1.456;2023-08-06T05:05:07;12.30;99.90
16871;DHT22;8552;48.120;-1.456;2023-08-06T05:07:35;12.30;99.90
16871;DHT22;8552;48.120;-1.456;2023-08-06T05:10:01;12.30;99.90
16871;DHT22;8552;48.120;-1.456;2023-08-06T05:12:28;12.30;99.90
16871;DHT22;8552;48.120;-1.456;2023-08-06T05:14:54;12.30;99.90
16871;DHT22;8552;48.120;-1.456;2023-08-06T05:17:19;12.30;99.90
16871;DHT22;8552;48.120;-1.456;2023-08-06T05:19:47;12.30;99.90
16871;DHT22;8552;48.120;-1.456;2023-08-06T05:22:15;12.30;99.90
16871;DHT22;8552;48.120;-1.456;2023-08-06T05:24:41;12.30;99.90
16871;DHT22;8552;48.120;-1.456;2023-08-06T05:27:07;12.30;99.90
16871;DHT22;8552;48.120;-1.456;2023-08-06T05:29:33;12.30;99.90
16871;DHT22;8552;48.120;-1.456;2023-08-06T05:31:58;12.30;99.90
16871;DHT22;8552;48.120;-1.456;2023-08-06T05:34:24;12.30;99.90
16871;DHT22;8552;48.120;-1.456;2023-08-06T05:36:50;12.30;99.90
16871;DHT22;8552;48.120;-1.456;2023-08-06T05:39:16;12.40;99.90
16871;DHT22;8552;48.120;-1.456;2023-08-06T05:41:42;12.40;99.90
16871;DHT22;8552;48.120;-1.456;2023-08-06T05:44:07;12.40;99.90
16871;DHT22;8552;48.120;-1.456;2023-08-06T05:46:33;12.50;99.90
16871;DHT22;8552;48.120;-1.456;2023-08-06T05:48:59;12.50;99.90
16871;DHT22;8552;48.120;-1.456;2023-08-06T05:51:26;12.50;99.90
16871;DHT22;8552;48.120;-1.456;2023-08-06T05:53:52;12.50;99.90
16871;DHT22;8552;48.120;-1.456;2023-08-06T05:56:18;12.50;99.90
16871;DHT22;8552;48.120;-1.456;2023-08-06T05:58:44;12.50;99.90
16871;DHT22;8552;48.120;-1.456;2023-08-06T06:01:11;12.60;99.90
16871;DHT22;8552;48.120;-1.456;2023-08-06T06:03:37;12.60;99.90
16871;DHT22;8552;48.120;-1.456;2023-08-06T06:06:03;12.60;99.90
16871;DHT22;8552;48.120;-1.456;2023-08-06T06:08:29;12.70;99.90
16871;DHT22;8552;48.120;-1.456;2023-08-06T06:10:55;12.80;99.90
16871;DHT22;8552;48.120;-1.456;2023-08-06T06:13:20;12.80;99.90
16871;DHT22;8552;48.120;-1.456;2023-08-06T06:15:46;12.90;99.90
16871;DHT22;8552;48.120;-1.456;2023-08-06T06:18:13;13.00;99.90
16871;DHT22;8552;48.120;-1.456;2023-08-06T06:20:39;13.10;99.90
16871;DHT22;8552;48.120;-1.456;2023-08-06T06:23:04;13.10;99.90
16871;DHT22;8552;48.120;-1.456;2023-08-06T06:25:30;13.20;99.90
16871;DHT22;8552;48.120;-1.456;2023-08-06T06:27:56;13.30;99.90
16871;DHT22;8552;48.120;-1.456;2023-08-06T06:30:24;13.30;99.90
16871;DHT22;8552;48.120;-1.456;2023-08-06T06:32:49;13.30;99.90
16871;DHT22;8552;48.120;-1.456;2023-08-06T06:35:18;13.40;99.90
16871;DHT22;8552;48.120;-1.456;2023-08-06T06:37:43;13.50;99.90
16871;DHT22;8552;48.120;-1.456;2023-08-06T06:40:09;13.60;99.90
16871;DHT22;8552;48.120;-1.456;2023-08-06T06:42:35;13.60;99.90
16871;DHT22;8552;48.120;-1.456;2023-08-06T06:45:01;13.70;99.90
16871;DHT22;8552;48.120;-1.456;2023-08-06T06:47:27;13.80;99.90
16871;DHT22;8552;48.120;-1.456;2023-08-06T06:49:52;13.80;99.90
16871;DHT22;8552;48.120;-1.456;2023-08-06T06:52:18;13.90;99.90
16871;DHT22;8552;48.120;-1.456;2023-08-06T06:54:44;14.00;99.90
16871;DHT22;8552;48.120;-1.456;2023-08-06T06:57:09;14.10;99.90
16871;DHT22;8552;48.120;-1.456;2023-08-06T06:59:35;14.20;99.90
16871;DHT22;8552;48.120;-1.456;2023-08-06T07:02:01;14.30;99.90
16871;DHT22;8552;48.120;-1.456;2023-08-06T07:04:27;14.30;99.90
16871;DHT22;8552;48.120;-1.456;2023-08-06T07:06:52;14.40;99.90
16871;DHT22;8552;48.120;-1.456;2023-08-06T07:09:18;14.40;99.90
16871;DHT22;8552;48.120;-1.456;2023-08-06T07:11:44;14.50;99.90
16871;DHT22;8552;48.120;-1.456;2023-08-06T07:14:09;14.60;99.90
16871;DHT22;8552;48.120;-1.456;2023-08-06T07:16:35;14.70;99.90
16871;DHT22;8552;48.120;-1.456;2023-08-06T07:19:01;14.80;99.90
16871;DHT22;8552;48.120;-1.456;2023-08-06T07:21:27;14.90;99.90
16871;DHT22;8552;48.120;-1.456;2023-08-06T07:23:52;15.00;99.90
16871;DHT22;8552;48.120;-1.456;2023-08-06T07:26:18;15.10;99.90
16871;DHT22;8552;48.120;-1.456;2023-08-06T07:28:44;15.20;99.90
16871;DHT22;8552;48.120;-1.456;2023-08-06T07:31:10;15.30;99.90
16871;DHT22;8552;48.120;-1.456;2023-08-06T07:33:36;15.40;99.90
16871;DHT22;8552;48.120;-1.456;2023-08-06T07:36:08;15.60;99.90
16871;DHT22;8552;48.120;-1.456;2023-08-06T07:38:34;15.60;99.90
16871;DHT22;8552;48.120;-1.456;2023-08-06T07:41:02;15.70;99.90
16871;DHT22;8552;48.120;-1.456;2023-08-06T07:43:27;15.70;99.90
16871;DHT22;8552;48.120;-1.456;2023-08-06T07:45:53;15.70;99.90
16871;DHT22;8552;48.120;-1.456;2023-08-06T07:48:19;15.90;99.90
16871;DHT22;8552;48.120;-1.456;2023-08-06T07:50:44;16.00;99.90
16871;DHT22;8552;48.120;-1.456;2023-08-06T07:53:15;16.00;99.90
16871;DHT22;8552;48.120;-1.456;2023-08-06T07:55:41;16.30;99.90
16871;DHT22;8552;48.120;-1.456;2023-08-06T07:58:07;16.50;99.90
16871;DHT22;8552;48.120;-1.456;2023-08-06T08:00:33;16.70;99.90
16871;DHT22;8552;48.120;-1.456;2023-08-06T08:02:59;16.70;99.90
16871;DHT22;8552;48.120;-1.456;2023-08-06T08:05:25;16.60;99.90
16871;DHT22;8552;48.120;-1.456;2023-08-06T08:07:50;16.50;99.90
16871;DHT22;8552;48.120;-1.456;2023-08-06T08:10:16;16.60;99.90
16871;DHT22;8552;48.120;-1.456;2023-08-06T08:12:42;16.80;99.90
16871;DHT22;8552;48.120;-1.456;2023-08-06T08:15:08;17.00;99.90
16871;DHT22;8552;48.120;-1.456;2023-08-06T08:17:34;17.10;99.90
16871;DHT22;8552;48.120;-1.456;2023-08-06T08:20:00;17.20;99.90
16871;DHT22;8552;48.120;-1.456;2023-08-06T08:22:25;17.20;99.90
16871;DHT22;8552;48.120;-1.456;2023-08-06T08:24:54;17.20;99.90
16871;DHT22;8552;48.120;-1.456;2023-08-06T08:27:19;17.30;99.90
16871;DHT22;8552;48.120;-1.456;2023-08-06T08:29:45;17.40;99.90
16871;DHT22;8552;48.120;-1.456;2023-08-06T08:32:11;17.50;99.90
16871;DHT22;8552;48.120;-1.456;2023-08-06T08:34:37;17.70;99.90
16871;DHT22;8552;48.120;-1.456;2023-08-06T08:37:03;17.80;99.90
16871;DHT22;8552;48.120;-1.456;2023-08-06T08:39:28;17.90;99.90
16871;DHT22;8552;48.120;-1.456;2023-08-06T08:41:54;18.00;99.90
16871;DHT22;8552;48.120;-1.456;2023-08-06T08:44:20;18.40;99.90
16871;DHT22;8552;48.120;-1.456;2023-08-06T08:46:47;18.40;99.90
16871;DHT22;8552;48.120;-1.456;2023-08-06T08:49:13;18.50;99.90
16871;DHT22;8552;48.120;-1.456;2023-08-06T08:51:39;18.40;99.90
16871;DHT22;8552;48.120;-1.456;2023-08-06T08:54:07;18.20;99.90
16871;DHT22;8552;48.120;-1.456;2023-08-06T08:56:33;18.20;99.90
16871;DHT22;8552;48.120;-1.456;2023-08-06T08:58:59;18.50;99.90
16871;DHT22;8552;48.120;-1.456;2023-08-06T09:01:25;18.60;99.90
16871;DHT22;8552;48.120;-1.456;2023-08-06T09:03:51;18.60;99.90
16871;DHT22;8552;48.120;-1.456;2023-08-06T09:06:19;18.70;99.90
16871;DHT22;8552;48.120;-1.456;2023-08-06T09:09:01;18.60;99.90
16871;DHT22;8552;48.120;-1.456;2023-08-06T09:11:28;18.60;99.90
16871;DHT22;8552;48.120;-1.456;2023-08-06T09:13:57;18.60;99.90
16871;DHT22;8552;48.120;-1.456;2023-08-06T09:16:23;18.70;99.90
16871;DHT22;8552;48.120;-1.456;2023-08-06T09:18:49;18.90;99.90
16871;DHT22;8552;48.120;-1.456;2023-08-06T09:21:15;19.30;99.90
16871;DHT22;8552;48.120;-1.456;2023-08-06T09:23:41;19.70;99.90
16871;DHT22;8552;48.120;-1.456;2023-08-06T09:26:11;19.60;99.90
16871;DHT22;8552;48.120;-1.456;2023-08-06T09:28:38;19.40;99.90
16871;DHT22;8552;48.120;-1.456;2023-08-06T09:31:04;19.40;99.90
16871;DHT22;8552;48.120;-1.456;2023-08-06T09:33:30;19.30;99.90
16871;DHT22;8552;48.120;-1.456;2023-08-06T09:36:09;19.20;99.90
16871;DHT22;8552;48.120;-1.456;2023-08-06T09:38:38;19.40;99.90
16871;DHT22;8552;48.120;-1.456;2023-08-06T09:41:07;19.70;99.90
16871;DHT22;8552;48.120;-1.456;2023-08-06T09:43:43;19.90;99.90
16871;DHT22;8552;48.120;-1.456;2023-08-06T09:46:13;20.10;99.90
16871;DHT22;8552;48.120;-1.456;2023-08-06T09:48:40;20.10;99.90
16871;DHT22;8552;48.120;-1.456;2023-08-06T09:51:08;20.10;99.90
16871;DHT22;8552;48.120;-1.456;2023-08-06T09:53:34;20.40;99.90
16871;DHT22;8552;48.120;-1.456;2023-08-06T09:56:01;20.40;99.90
16871;DHT22;8552;48.120;-1.456;2023-08-06T09:58:27;20.50;99.90
16871;DHT22;8552;48.120;-1.456;2023-08-06T10:00:53;20.60;99.90
16871;DHT22;8552;48.120;-1.456;2023-08-06T10:03:19;20.80;99.90
16871;DHT22;8552;48.120;-1.456;2023-08-06T10:05:46;20.50;99.90
16871;DHT22;8552;48.120;-1.456;2023-08-06T10:08:12;20.50;99.90
16871;DHT22;8552;48.120;-1.456;2023-08-06T10:10:38;20.90;99.90
16871;DHT22;8552;48.120;-1.456;2023-08-06T10:13:06;20.90;99.90
16871;DHT22;8552;48.120;-1.456;2023-08-06T10:15:33;20.80;99.90
16871;DHT22;8552;48.120;-1.456;2023-08-06T10:17:59;20.80;99.90
16871;DHT22;8552;48.120;-1.456;2023-08-06T10:20:26;20.90;99.90
16871;DHT22;8552;48.120;-1.456;2023-08-06T10:23:03;20.80;99.90
16871;DHT22;8552;48.120;-1.456;2023-08-06T10:25:41;20.70;99.90
16871;DHT22;8552;48.120;-1.456;2023-08-06T10:28:11;20.70;99.90
16871;DHT22;8552;48.120;-1.456;2023-08-06T10:30:46;20.80;99.90
16871;DHT22;8552;48.120;-1.456;2023-08-06T10:33:12;21.00;99.90
16871;DHT22;8552;48.120;-1.456;2023-08-06T10:35:44;21.20;99.90
16871;DHT22;8552;48.120;-1.456;2023-08-06T10:38:15;21.30;99.90
16871;DHT22;8552;48.120;-1.456;2023-08-06T10:43:32;21.20;99.90
16871;DHT22;8552;48.120;-1.456;2023-08-06T10:46:01;21.30;99.90
16871;DHT22;8552;48.120;-1.456;2023-08-06T10:48:35;21.40;99.90
16871;DHT22;8552;48.120;-1.456;2023-08-06T10:51:11;21.40;99.90
16871;DHT22;8552;48.120;-1.456;2023-08-06T10:53:37;21.50;99.90
16871;DHT22;8552;48.120;-1.456;2023-08-06T10:56:14;21.30;99.90
16871;DHT22;8552;48.120;-1.456;2023-08-06T10:58:40;21.20;99.90
16871;DHT22;8552;48.120;-1.456;2023-08-06T11:01:06;21.50;99.90
16871;DHT22;8552;48.120;-1.456;2023-08-06T11:03:33;21.50;99.90
16871;DHT22;8552;48.120;-1.456;2023-08-06T11:05:59;21.60;99.90
16871;DHT22;8552;48.120;-1.456;2023-08-06T11:08:29;21.90;99.90
16871;DHT22;8552;48.120;-1.456;2023-08-06T11:10:55;22.30;99.90
16871;DHT22;8552;48.120;-1.456;2023-08-06T11:13:21;22.70;99.90
16871;DHT22;8552;48.120;-1.456;2023-08-06T11:15:47;22.90;99.10
16871;DHT22;8552;48.120;-1.456;2023-08-06T11:18:13;22.90;98.10
16871;DHT22;8552;48.120;-1.456;2023-08-06T11:20:39;22.60;98.70
16871;DHT22;8552;48.120;-1.456;2023-08-06T11:23:05;22.40;99.30
16871;DHT22;8552;48.120;-1.456;2023-08-06T11:25:36;22.10;99.10
16871;DHT22;8552;48.120;-1.456;2023-08-06T11:28:02;21.90;97.70
16871;DHT22;8552;48.120;-1.456;2023-08-06T11:30:28;21.60;98.10
16871;DHT22;8552;48.120;-1.456;2023-08-06T11:32:54;21.60;99.60
16871;DHT22;8552;48.120;-1.456;2023-08-06T11:35:19;21.50;97.50
16871;DHT22;8552;48.120;-1.456;2023-08-06T11:37:46;21.50;99.50
16871;DHT22;8552;48.120;-1.456;2023-08-06T11:40:11;21.40;99.70
16871;DHT22;8552;48.120;-1.456;2023-08-06T11:42:37;21.90;99.90
16871;DHT22;8552;48.120;-1.456;2023-08-06T11:45:04;22.00;98.30
16871;DHT22;8552;48.120;-1.456;2023-08-06T11:47:30;21.90;97.80
16871;DHT22;8552;48.120;-1.456;2023-08-06T11:49:56;21.80;97.80
16871;DHT22;8552;48.120;-1.456;2023-08-06T11:52:22;21.60;97.90
16871;DHT22;8552;48.120;-1.456;2023-08-06T11:55:05;21.50;97.70
16871;DHT22;8552;48.120;-1.456;2023-08-06T11:57:43;21.60;98.10
16871;DHT22;8552;48.120;-1.456;2023-08-06T12:00:11;21.70;97.60
16871;DHT22;8552;48.120;-1.456;2023-08-06T12:02:41;22.10;99.00
16871;DHT22;8552;48.120;-1.456;2023-08-06T12:05:12;22.80;99.20
16871;DHT22;8552;48.120;-1.456;2023-08-06T12:07:43;22.80;96.90
16871;DHT22;8552;48.120;-1.456;2023-08-06T12:10:10;22.60;96.70
16871;DHT22;8552;48.120;-1.456;2023-08-06T12:12:36;22.50;95.80
16871;DHT22;8552;48.120;-1.456;2023-08-06T12:15:03;22.30;97.80
16871;DHT22;8552;48.120;-1.456;2023-08-06T12:17:29;22.30;97.10
16871;DHT22;8552;48.120;-1.456;2023-08-06T12:19:55;22.30;96.00
16871;DHT22;8552;48.120;-1.456;2023-08-06T12:22:20;22.30;97.70
16871;DHT22;8552;48.120;-1.456;2023-08-06T12:24:47;22.20;96.00
16871;DHT22;8552;48.120;-1.456;2023-08-06T12:27:13;22.20;96.00
16871;DHT22;8552;48.120;-1.456;2023-08-06T12:29:47;22.10;94.70
16871;DHT22;8552;48.120;-1.456;2023-08-06T12:32:13;21.90;94.60
16871;DHT22;8552;48.120;-1.456;2023-08-06T12:34:40;22.00;95.80
16871;DHT22;8552;48.120;-1.456;2023-08-06T12:37:06;22.10;95.30
16871;DHT22;8552;48.120;-1.456;2023-08-06T12:39:35;22.10;95.80
16871;DHT22;8552;48.120;-1.456;2023-08-06T12:42:02;22.40;97.40
16871;DHT22;8552;48.120;-1.456;2023-08-06T12:44:29;22.60;96.50
16871;DHT22;8552;48.120;-1.456;2023-08-06T12:46:54;22.40;95.80
16871;DHT22;8552;48.120;-1.456;2023-08-06T12:49:21;22.40;96.30
16871;DHT22;8552;48.120;-1.456;2023-08-06T12:51:48;22.60;96.50
16871;DHT22;8552;48.120;-1.456;2023-08-06T12:54:13;23.00;96.90
16871;DHT22;8552;48.120;-1.456;2023-08-06T12:56:39;23.20;95.60
16871;DHT22;8552;48.120;-1.456;2023-08-06T12:59:05;23.00;94.00
16871;DHT22;8552;48.120;-1.456;2023-08-06T13:01:30;22.90;94.70
16871;DHT22;8552;48.120;-1.456;2023-08-06T13:03:57;23.00;94.80
16871;DHT22;8552;48.120;-1.456;2023-08-06T13:06:23;23.00;95.40
16871;DHT22;8552;48.120;-1.456;2023-08-06T13:08:48;22.70;94.30
16871;DHT22;8552;48.120;-1.456;2023-08-06T13:11:14;22.70;94.90
16871;DHT22;8552;48.120;-1.456;2023-08-06T13:13:40;22.40;94.20
16871;DHT22;8552;48.120;-1.456;2023-08-06T13:16:05;22.20;94.70
16871;DHT22;8552;48.120;-1.456;2023-08-06T13:18:33;22.50;94.80
16871;DHT22;8552;48.120;-1.456;2023-08-06T13:20:58;22.70;93.50
16871;DHT22;8552;48.120;-1.456;2023-08-06T13:23:24;23.20;93.80
16871;DHT22;8552;48.120;-1.456;2023-08-06T13:25:50;23.40;93.00
16871;DHT22;8552;48.120;-1.456;2023-08-06T13:28:15;23.80;94.10
16871;DHT22;8552;48.120;-1.456;2023-08-06T13:30:41;24.10;93.40
16871;DHT22;8552;48.120;-1.456;2023-08-06T13:33:08;24.00;91.40
16871;DHT22;8552;48.120;-1.456;2023-08-06T13:35:34;23.50;92.20
16871;DHT22;8552;48.120;-1.456;2023-08-06T13:38:00;23.10;91.60
16871;DHT22;8552;48.120;-1.456;2023-08-06T13:40:28;22.80;91.70
16871;DHT22;8552;48.120;-1.456;2023-08-06T13:42:55;22.80;91.20
16871;DHT22;8552;48.120;-1.456;2023-08-06T13:45:21;22.90;92.60
16871;DHT22;8552;48.120;-1.456;2023-08-06T13:47:47;23.40;92.80
16871;DHT22;8552;48.120;-1.456;2023-08-06T13:50:13;23.40;92.20
16871;DHT22;8552;48.120;-1.456;2023-08-06T13:52:39;23.50;93.20
16871;DHT22;8552;48.120;-1.456;2023-08-06T13:55:05;23.20;92.00
16871;DHT22;8552;48.120;-1.456;2023-08-06T13:57:31;23.00;91.00
16871;DHT22;8552;48.120;-1.456;2023-08-06T13:59:57;22.90;93.20
16871;DHT22;8552;48.120;-1.456;2023-08-06T14:02:23;23.20;92.80
16871;DHT22;8552;48.120;-1.456;2023-08-06T14:04:49;23.80;93.30
16871;DHT22;8552;48.120;-1.456;2023-08-06T14:07:15;23.90;89.30
16871;DHT22;8552;48.120;-1.456;2023-08-06T14:09:40;24.30;91.20
16871;DHT22;8552;48.120;-1.456;2023-08-06T14:12:08;24.70;90.80
16871;DHT22;8552;48.120;-1.456;2023-08-06T14:14:33;24.30;89.40
16871;DHT22;8552;48.120;-1.456;2023-08-06T14:16:59;24.00;90.90
16871;DHT22;8552;48.120;-1.456;2023-08-06T14:19:25;23.70;90.70
16871;DHT22;8552;48.120;-1.456;2023-08-06T14:21:51;23.70;91.10
16871;DHT22;8552;48.120;-1.456;2023-08-06T14:24:16;24.00;92.20
16871;DHT22;8552;48.120;-1.456;2023-08-06T14:26:42;23.80;91.90
16871;DHT22;8552;48.120;-1.456;2023-08-06T14:29:08;24.00;91.20
16871;DHT22;8552;48.120;-1.456;2023-08-06T14:31:34;24.50;91.40
16871;DHT22;8552;48.120;-1.456;2023-08-06T14:33:59;24.80;90.30
16871;DHT22;8552;48.120;-1.456;2023-08-06T14:36:26;24.40;91.00
16871;DHT22;8552;48.120;-1.456;2023-08-06T14:38:51;23.90;90.30
16871;DHT22;8552;48.120;-1.456;2023-08-06T14:41:17;23.90;90.90
16871;DHT22;8552;48.120;-1.456;2023-08-06T14:43:43;23.70;90.20
16871;DHT22;8552;48.120;-1.456;2023-08-06T14:46:08;23.80;90.80
16871;DHT22;8552;48.120;-1.456;2023-08-06T14:48:34;24.00;88.60
16871;DHT22;8552;48.120;-1.456;2023-08-06T14:51:01;23.80;90.90
16871;DHT22;8552;48.120;-1.456;2023-08-06T14:53:26;23.80;92.20
16871;DHT22;8552;48.120;-1.456;2023-08-06T14:55:52;23.80;91.10
16871;DHT22;8552;48.120;-1.456;2023-08-06T14:58:19;24.00;91.00
16871;DHT22;8552;48.120;-1.456;2023-08-06T15:00:45;24.20;90.40
16871;DHT22;8552;48.120;-1.456;2023-08-06T15:03:11;24.20;87.60
16871;DHT22;8552;48.120;-1.456;2023-08-06T15:05:37;23.70;89.80
16871;DHT22;8552;48.120;-1.456;2023-08-06T15:08:03;23.30;90.00
16871;DHT22;8552;48.120;-1.456;2023-08-06T15:10:28;23.20;89.70
16871;DHT22;8552;48.120;-1.456;2023-08-06T15:12:54;22.90;88.80
16871;DHT22;8552;48.120;-1.456;2023-08-06T15:15:20;22.60;90.10
16871;DHT22;8552;48.120;-1.456;2023-08-06T15:17:47;22.90;91.90
16871;DHT22;8552;48.120;-1.456;2023-08-06T15:20:13;23.00;88.70
16871;DHT22;8552;48.120;-1.456;2023-08-06T15:22:39;23.00;90.60
16871;DHT22;8552;48.120;-1.456;2023-08-06T15:25:05;23.00;89.60
16871;DHT22;8552;48.120;-1.456;2023-08-06T15:27:31;23.00;86.80
16871;DHT22;8552;48.120;-1.456;2023-08-06T15:29:58;23.00;89.70
16871;DHT22;8552;48.120;-1.456;2023-08-06T15:32:24;22.90;90.00
16871;DHT22;8552;48.120;-1.456;2023-08-06T15:34:50;23.20;88.50
16871;DHT22;8552;48.120;-1.456;2023-08-06T15:37:16;23.20;87.40
16871;DHT22;8552;48.120;-1.456;2023-08-06T15:39:43;23.20;86.60